createdAt,value
2017-08-05T00:00:53.021Z,1008.48
2017-08-05T00:02:01.981Z,1008.49
2017-08-05T00:03:10.948Z,1008.47
2017-08-05T00:04:19.904Z,1008.49
2017-08-05T00:05:28.872Z,1008.51
2017-08-05T00:06:37.831Z,1008.45
2017-08-05T00:07:46.799Z,1008.46
2017-08-05T00:08:55.755Z,1008.49
2017-08-05T00:10:04.713Z,1008.49
2017-08-05T00:11:13.680Z,1008.48
2017-08-05T00:12:22.644Z,1008.47
2017-08-05T00:13:31.926Z,1008.5
2017-08-05T00:14:40.892Z,1008.53
2017-08-05T00:15:50.169Z,1008.55
2017-08-05T00:16:59.130Z,1008.55
2017-08-05T00:18:08.082Z,1008.54
2017-08-05T00:19:17.051Z,1008.51
2017-08-05T00:20:26.003Z,1008.48
2017-08-05T00:21:34.966Z,1008.5
2017-08-05T00:22:43.927Z,1008.49
2017-08-05T00:23:52.892Z,1008.48
2017-08-05T00:25:01.859Z,1008.48
2017-08-05T00:26:11.173Z,1008.51
2017-08-05T00:27:20.127Z,1008.5
2017-08-05T00:28:29.110Z,1008.52
2017-08-05T00:29:38.075Z,1008.54
2017-08-05T00:30:47.037Z,1008.54
2017-08-05T00:31:56.004Z,1008.54
2017-08-05T00:33:04.972Z,1008.51
2017-08-05T00:34:13.929Z,1008.49
2017-08-05T00:35:22.891Z,1008.49
2017-08-05T00:36:31.846Z,1008.49
2017-08-05T00:37:40.806Z,1008.45
2017-08-05T00:38:49.776Z,1008.44
2017-08-05T00:39:58.740Z,1008.47
2017-08-05T00:41:07.698Z,1008.43
2017-08-05T00:42:16.659Z,1008.44
2017-08-05T00:43:25.621Z,1008.42
2017-08-05T00:44:34.584Z,1008.39
2017-08-05T00:45:43.548Z,1008.4
2017-08-05T00:46:52.511Z,1008.45
2017-08-05T00:48:01.469Z,1008.45
2017-08-05T00:49:10.441Z,1008.48
2017-08-05T00:50:19.399Z,1008.47
2017-08-05T00:51:28.365Z,1008.47
2017-08-05T00:52:37.332Z,1008.44
2017-08-05T00:53:46.284Z,1008.46
2017-08-05T00:54:55.250Z,1008.49
2017-08-05T00:56:04.869Z,1008.43
2017-08-05T00:57:13.832Z,1008.44
2017-08-05T00:58:23.113Z,1008.51
2017-08-05T00:59:32.114Z,1008.48
2017-08-05T01:00:41.073Z,1008.49
2017-08-05T01:01:50.037Z,1008.46
2017-08-05T01:02:59.002Z,1008.49
2017-08-05T01:04:07.960Z,1008.43
2017-08-05T01:05:16.919Z,1008.5
2017-08-05T01:06:25.881Z,1008.46
2017-08-05T01:07:34.841Z,1008.47
2017-08-05T01:08:43.797Z,1008.46
2017-08-05T01:09:52.766Z,1008.5
2017-08-05T01:11:01.724Z,1008.48
2017-08-05T01:12:10.688Z,1008.53
2017-08-05T01:13:19.649Z,1008.54
2017-08-05T01:14:28.606Z,1008.56
2017-08-05T01:15:37.580Z,1008.59
2017-08-05T01:16:46.550Z,1008.61
2017-08-05T01:17:55.508Z,1008.63
2017-08-05T01:19:04.460Z,1008.63
2017-08-05T01:20:13.422Z,1008.65
2017-08-05T01:21:22.384Z,1008.64
2017-08-05T01:22:31.336Z,1008.64
2017-08-05T01:23:40.305Z,1008.64
2017-08-05T01:24:49.270Z,1008.58
2017-08-05T01:25:58.562Z,1008.57
2017-08-05T01:27:07.519Z,1008.63
2017-08-05T01:28:16.491Z,1008.64
2017-08-05T01:29:25.775Z,1008.6
2017-08-05T01:30:34.742Z,1008.69
2017-08-05T01:31:43.711Z,1008.69
2017-08-05T01:32:52.674Z,1008.71
2017-08-05T01:34:01.648Z,1008.71
2017-08-05T01:35:10.618Z,1008.71
2017-08-05T01:36:19.583Z,1008.78
2017-08-05T01:37:28.544Z,1008.81
2017-08-05T01:38:37.515Z,1008.78
2017-08-05T01:39:46.474Z,1008.8
2017-08-05T01:40:55.770Z,1008.83
2017-08-05T01:42:04.736Z,1008.79
2017-08-05T01:43:13.693Z,1008.77
2017-08-05T01:44:22.648Z,1008.76
2017-08-05T01:45:31.614Z,1008.77
2017-08-05T01:46:40.575Z,1008.78
2017-08-05T01:47:49.869Z,1008.76
2017-08-05T01:48:58.823Z,1008.81
2017-08-05T01:50:07.786Z,1008.73
2017-08-05T01:51:16.747Z,1008.74
2017-08-05T01:52:25.711Z,1008.77
2017-08-05T01:53:34.665Z,1008.77
2017-08-05T01:54:43.632Z,1008.74
2017-08-05T01:55:52.594Z,1008.77
2017-08-05T01:57:01.561Z,1008.75
2017-08-05T01:58:10.518Z,1008.76
2017-08-05T01:59:19.487Z,1008.76
2017-08-05T02:00:28.447Z,1008.78
2017-08-05T02:01:37.411Z,1008.77
2017-08-05T02:02:46.367Z,1008.84
2017-08-05T02:03:55.651Z,1008.85
2017-08-05T02:05:04.614Z,1008.85
2017-08-05T02:06:13.577Z,1008.84
2017-08-05T02:07:22.542Z,1008.84
2017-08-05T02:08:31.503Z,1008.85
2017-08-05T02:09:40.463Z,1008.91
2017-08-05T02:10:49.427Z,1008.91
2017-08-05T02:11:58.389Z,1008.95
2017-08-05T02:13:07.356Z,1008.92
2017-08-05T02:14:16.649Z,1008.97
2017-08-05T02:15:25.611Z,1008.96
2017-08-05T02:16:34.564Z,1009.04
2017-08-05T02:17:43.525Z,1009.04
2017-08-05T02:18:52.484Z,1008.99
2017-08-05T02:20:01.765Z,1009.04
2017-08-05T02:21:10.730Z,1008.99
2017-08-05T02:22:20.011Z,1009.01
2017-08-05T02:23:28.972Z,1009.03
2017-08-05T02:24:37.938Z,1009.06
2017-08-05T02:25:46.911Z,1009.06
2017-08-05T02:26:55.870Z,1009.05
2017-08-05T02:28:04.833Z,1009.02
2017-08-05T02:29:13.791Z,1008.98
2017-08-05T02:30:22.743Z,1009
2017-08-05T02:31:31.697Z,1009.03
2017-08-05T02:32:40.666Z,1009
2017-08-05T02:33:49.636Z,1009
2017-08-05T02:34:58.607Z,1009.01
2017-08-05T02:36:07.565Z,1008.99
2017-08-05T02:37:16.524Z,1008.99
2017-08-05T02:38:25.480Z,1009
2017-08-05T02:39:34.443Z,1008.97
2017-08-05T02:40:43.408Z,1009
2017-08-05T02:41:52.375Z,1009.01
2017-08-05T02:43:01.342Z,1009.01
2017-08-05T02:44:10.310Z,1008.96
2017-08-05T02:45:19.271Z,1008.99
2017-08-05T02:46:28.573Z,1008.99
2017-08-05T02:47:37.879Z,1008.98
2017-08-05T02:48:46.840Z,1009.04
2017-08-05T02:49:55.806Z,1009.04
2017-08-05T02:51:04.769Z,1009.06
2017-08-05T02:52:13.721Z,1009.05
2017-08-05T02:53:22.676Z,1009.07
2017-08-05T02:54:31.641Z,1009.09
2017-08-05T02:55:40.595Z,1009.04
2017-08-05T02:56:49.560Z,1009.08
2017-08-05T02:57:58.526Z,1009.07
2017-08-05T02:59:07.486Z,1009.11
2017-08-05T03:00:16.440Z,1009.1
2017-08-05T03:01:25.406Z,1009.07
2017-08-05T03:02:34.367Z,1009.06
2017-08-05T03:03:43.334Z,1009.07
2017-08-05T03:04:52.292Z,1009.11
2017-08-05T03:06:01.252Z,1009.06
2017-08-05T03:07:10.210Z,1009.09
2017-08-05T03:08:19.162Z,1009.04
2017-08-05T03:09:28.125Z,1009.03
2017-08-05T03:10:37.093Z,1009.06
2017-08-05T03:11:46.057Z,1009.06
2017-08-05T03:12:55.029Z,1009.08
2017-08-05T03:14:03.978Z,1009.05
2017-08-05T03:15:12.948Z,1009.09
2017-08-05T03:16:21.900Z,1009.07
2017-08-05T03:17:31.166Z,1009.07
2017-08-05T03:18:40.127Z,1009.08
2017-08-05T03:19:49.089Z,1009.06
2017-08-05T03:20:58.047Z,1009.09
2017-08-05T03:22:07.003Z,1009.12
2017-08-05T03:23:15.959Z,1009.13
2017-08-05T03:24:24.923Z,1009.11
2017-08-05T03:25:33.877Z,1009.17
2017-08-05T03:26:42.829Z,1009.17
2017-08-05T03:27:51.787Z,1009.19
2017-08-05T03:29:00.746Z,1009.22
2017-08-05T03:30:09.699Z,1009.26
2017-08-05T03:31:18.670Z,1009.25
2017-08-05T03:32:27.633Z,1009.23
2017-08-05T03:33:36.598Z,1009.24
2017-08-05T03:34:45.561Z,1009.2
2017-08-05T03:35:54.523Z,1009.18
2017-08-05T03:37:03.487Z,1009.16
2017-08-05T03:38:12.439Z,1009.13
2017-08-05T03:39:21.402Z,1009.13
2017-08-05T03:40:30.358Z,1009.12
2017-08-05T03:41:39.328Z,1009.12
2017-08-05T03:42:48.293Z,1009.12
2017-08-05T03:43:57.253Z,1009.09
2017-08-05T03:45:06.557Z,1009.13
2017-08-05T03:46:15.516Z,1009.21
2017-08-05T03:47:24.470Z,1009.22
2017-08-05T03:48:33.429Z,1009.3
2017-08-05T03:49:42.400Z,1009.27
2017-08-05T03:50:51.360Z,1009.31
2017-08-05T03:52:00.317Z,1009.33
2017-08-05T03:53:09.286Z,1009.3
2017-08-05T03:54:18.252Z,1009.27
2017-08-05T03:55:27.205Z,1009.29
2017-08-05T03:56:36.162Z,1009.3
2017-08-05T03:57:45.448Z,1009.32
2017-08-05T03:58:54.410Z,1009.32
2017-08-05T04:00:03.369Z,1009.29
2017-08-05T04:01:12.643Z,1009.28
2017-08-05T04:02:21.609Z,1009.32
2017-08-05T04:03:30.562Z,1009.32
2017-08-05T04:04:39.521Z,1009.3
2017-08-05T04:05:48.485Z,1009.33
2017-08-05T04:06:57.444Z,1009.34
2017-08-05T04:08:06.735Z,1009.32
2017-08-05T04:09:15.696Z,1009.33
2017-08-05T04:10:24.728Z,1009.33
2017-08-05T04:11:33.686Z,1009.4
2017-08-05T04:12:42.656Z,1009.36
2017-08-05T04:13:51.614Z,1009.35
2017-08-05T04:15:00.586Z,1009.33
2017-08-05T04:16:09.550Z,1009.32
2017-08-05T04:17:18.508Z,1009.29
2017-08-05T04:18:27.469Z,1009.32
2017-08-05T04:19:36.422Z,1009.33
2017-08-05T04:20:45.386Z,1009.29
2017-08-05T04:21:54.354Z,1009.28
2017-08-05T04:23:03.316Z,1009.22
2017-08-05T04:24:12.278Z,1009.21
2017-08-05T04:25:21.239Z,1009.16
2017-08-05T04:26:30.193Z,1009.21
2017-08-05T04:27:39.156Z,1009.16
2017-08-05T04:28:48.440Z,1009.17
2017-08-05T04:29:57.390Z,1009.13
2017-08-05T04:31:06.351Z,1009.09
2017-08-05T04:32:15.321Z,1009.08
2017-08-05T04:33:24.276Z,1009.05
2017-08-05T04:34:33.232Z,1009.1
2017-08-05T04:35:42.187Z,1009.07
2017-08-05T04:36:51.148Z,1009.11
2017-08-05T04:38:00.118Z,1009.14
2017-08-05T04:39:09.075Z,1009.16
2017-08-05T04:40:18.030Z,1009.23
2017-08-05T04:41:26.986Z,1009.21
2017-08-05T04:42:35.934Z,1009.26
2017-08-05T04:43:44.885Z,1009.3
2017-08-05T04:44:54.186Z,1009.29
2017-08-05T04:46:03.144Z,1009.33
2017-08-05T04:47:12.100Z,1009.39
2017-08-05T04:48:21.065Z,1009.35
2017-08-05T04:49:30.041Z,1009.39
2017-08-05T04:50:38.996Z,1009.37
2017-08-05T04:51:48.287Z,1009.32
2017-08-05T04:52:57.256Z,1009.38
2017-08-05T04:54:06.213Z,1009.38
2017-08-05T04:55:15.270Z,1009.39
2017-08-05T04:56:24.233Z,1009.39
2017-08-05T04:57:33.185Z,1009.31
2017-08-05T04:58:42.141Z,1009.26
2017-08-05T04:59:51.102Z,1009.25
2017-08-05T05:01:00.056Z,1009.26
2017-08-05T05:02:09.017Z,1009.24
2017-08-05T05:03:17.994Z,1009.24
2017-08-05T05:04:26.957Z,1009.25
2017-08-05T05:05:35.918Z,1009.24
2017-08-05T05:06:44.876Z,1009.31
2017-08-05T05:07:54.158Z,1009.32
2017-08-05T05:09:03.113Z,1009.34
2017-08-05T05:10:12.076Z,1009.3
2017-08-05T05:11:21.029Z,1009.35
2017-08-05T05:12:29.980Z,1009.36
2017-08-05T05:13:38.949Z,1009.37
2017-08-05T05:14:48.231Z,1009.37
2017-08-05T05:15:57.194Z,1009.3
2017-08-05T05:17:06.148Z,1009.3
2017-08-05T05:18:15.110Z,1009.33
2017-08-05T05:19:24.083Z,1009.32
2017-08-05T05:20:33.040Z,1009.29
2017-08-05T05:21:42.001Z,1009.32
2017-08-05T05:22:50.957Z,1009.29
2017-08-05T05:23:59.916Z,1009.29
2017-08-05T05:25:09.202Z,1009.25
2017-08-05T05:26:18.158Z,1009.29
2017-08-05T05:27:27.117Z,1009.33
2017-08-05T05:28:36.075Z,1009.37
2017-08-05T05:29:45.038Z,1009.37
2017-08-05T05:30:54.001Z,1009.31
2017-08-05T05:32:03.284Z,1009.31
2017-08-05T05:33:12.244Z,1009.29
2017-08-05T05:34:21.209Z,1009.31
2017-08-05T05:35:30.173Z,1009.33
2017-08-05T05:36:39.126Z,1009.33
2017-08-05T05:37:48.091Z,1009.33
2017-08-05T05:38:57.049Z,1009.37
2017-08-05T05:40:06.008Z,1009.38
2017-08-05T05:41:14.967Z,1009.42
2017-08-05T05:42:23.932Z,1009.46
2017-08-05T05:43:32.898Z,1009.42
2017-08-05T05:44:41.854Z,1009.43
2017-08-05T05:45:50.809Z,1009.47
2017-08-05T05:46:59.773Z,1009.39
2017-08-05T05:48:08.735Z,1009.48
2017-08-05T05:49:17.699Z,1009.48
2017-08-05T05:50:26.653Z,1009.5
2017-08-05T05:51:35.607Z,1009.53
2017-08-05T05:52:44.562Z,1009.5
2017-08-05T05:53:53.518Z,1009.46
2017-08-05T05:55:02.506Z,1009.5
2017-08-05T05:56:11.484Z,1009.48
2017-08-05T05:57:20.448Z,1009.51
2017-08-05T05:58:29.418Z,1009.49
2017-08-05T05:59:38.374Z,1009.47
2017-08-05T06:00:47.333Z,1009.46
2017-08-05T06:01:56.297Z,1009.5
2017-08-05T06:03:05.254Z,1009.47
2017-08-05T06:04:14.211Z,1009.48
2017-08-05T06:05:23.172Z,1009.49
2017-08-05T06:06:32.128Z,1009.5
2017-08-05T06:07:41.095Z,1009.49
2017-08-05T06:08:50.082Z,1009.49
2017-08-05T06:09:59.033Z,1009.47
2017-08-05T06:11:07.994Z,1009.47
2017-08-05T06:12:16.950Z,1009.44
2017-08-05T06:13:25.916Z,1009.43
2017-08-05T06:14:34.881Z,1009.46
2017-08-05T06:15:43.842Z,1009.51
2017-08-05T06:16:52.807Z,1009.46
2017-08-05T06:18:01.760Z,1009.47
2017-08-05T06:19:10.719Z,1009.5
2017-08-05T06:20:19.686Z,1009.55
2017-08-05T06:21:28.645Z,1009.51
2017-08-05T06:22:37.947Z,1009.59
2017-08-05T06:23:46.904Z,1009.51
2017-08-05T06:24:55.865Z,1009.53
2017-08-05T06:26:04.840Z,1009.51
2017-08-05T06:27:13.796Z,1009.49
2017-08-05T06:28:22.755Z,1009.52
2017-08-05T06:29:31.710Z,1009.46
2017-08-05T06:30:40.676Z,1009.47
2017-08-05T06:31:49.631Z,1009.44
2017-08-05T06:32:58.584Z,1009.43
2017-08-05T06:34:07.550Z,1009.44
2017-08-05T06:35:16.511Z,1009.41
2017-08-05T06:36:25.470Z,1009.42
2017-08-05T06:37:34.438Z,1009.44
2017-08-05T06:38:43.401Z,1009.42
2017-08-05T06:39:52.359Z,1009.42
2017-08-05T06:41:01.647Z,1009.42
2017-08-05T06:42:10.603Z,1009.39
2017-08-05T06:43:19.572Z,1009.45
2017-08-05T06:44:28.531Z,1009.47
2017-08-05T06:45:37.499Z,1009.46
2017-08-05T06:46:46.461Z,1009.45
2017-08-05T06:47:55.427Z,1009.47
2017-08-05T06:49:04.391Z,1009.51
2017-08-05T06:50:13.350Z,1009.48
2017-08-05T06:51:22.309Z,1009.48
2017-08-05T06:52:31.282Z,1009.46
2017-08-05T06:53:40.248Z,1009.44
2017-08-05T06:54:49.214Z,1009.43
2017-08-05T06:55:58.179Z,1009.38
2017-08-05T06:57:07.133Z,1009.33
2017-08-05T06:58:16.106Z,1009.33
2017-08-05T06:59:25.073Z,1009.29
2017-08-05T07:00:34.030Z,1009.24
2017-08-05T07:01:42.991Z,1009.24
2017-08-05T07:02:52.284Z,1009.3
2017-08-05T07:04:01.252Z,1009.4
2017-08-05T07:05:10.532Z,1009.35
2017-08-05T07:06:19.484Z,1009.31
2017-08-05T07:07:28.444Z,1009.19
2017-08-05T07:08:37.412Z,1009.16
2017-08-05T07:09:46.377Z,1009.12
2017-08-05T07:10:55.334Z,1009.17
2017-08-05T07:12:04.297Z,1009.2
2017-08-05T07:13:13.256Z,1009.17
2017-08-05T07:14:22.538Z,1009.24
2017-08-05T07:15:31.503Z,1009.22
2017-08-05T07:16:40.468Z,1009.27
2017-08-05T07:17:49.434Z,1009.3
2017-08-05T07:18:58.401Z,1009.25
2017-08-05T07:20:07.370Z,1009.26
2017-08-05T07:21:16.321Z,1009.33
2017-08-05T07:22:25.606Z,1009.38
2017-08-05T07:23:34.568Z,1009.35
2017-08-05T07:24:43.526Z,1009.42
2017-08-05T07:25:52.496Z,1009.42
2017-08-05T07:27:01.805Z,1009.44
2017-08-05T07:28:10.763Z,1009.37
2017-08-05T07:29:19.724Z,1009.29
2017-08-05T07:30:28.686Z,1009.34
2017-08-05T07:31:37.644Z,1009.28
2017-08-05T07:32:46.607Z,1009.31
2017-08-05T07:33:55.571Z,1009.31
2017-08-05T07:35:04.527Z,1009.3
2017-08-05T07:36:13.491Z,1009.22
2017-08-05T07:37:22.445Z,1009.24
2017-08-05T07:38:31.408Z,1009.3
2017-08-05T07:39:40.374Z,1009.33
2017-08-05T07:40:49.342Z,1009.3
2017-08-05T07:41:58.307Z,1009.28
2017-08-05T07:43:07.262Z,1009.26
2017-08-05T07:44:16.270Z,1009.23
2017-08-05T07:45:25.233Z,1009.29
2017-08-05T07:46:34.187Z,1009.35
2017-08-05T07:47:43.156Z,1009.34
2017-08-05T07:48:52.126Z,1009.3
2017-08-05T07:50:01.418Z,1009.21
2017-08-05T07:51:10.709Z,1009.13
2017-08-05T07:52:19.668Z,1009.07
2017-08-05T07:53:28.632Z,1009.01
2017-08-05T07:54:37.594Z,1009
2017-08-05T07:55:46.561Z,1008.98
2017-08-05T07:56:55.523Z,1009.07
2017-08-05T07:58:04.802Z,1009.09
2017-08-05T07:59:13.761Z,1009.11
2017-08-05T08:00:22.720Z,1009.07
2017-08-05T08:01:32.006Z,1009.08
2017-08-05T08:02:40.979Z,1009.12
2017-08-05T08:03:49.940Z,1009.15
2017-08-05T08:04:58.917Z,1009.08
2017-08-05T08:06:08.223Z,1009.18
2017-08-05T08:07:17.178Z,1009.17
2017-08-05T08:08:26.145Z,1009.18
2017-08-05T08:09:35.114Z,1009.18
2017-08-05T08:10:44.078Z,1009.17
2017-08-05T08:11:53.039Z,1009.14
2017-08-05T08:13:01.995Z,1009.15
2017-08-05T08:14:10.960Z,1009.18
2017-08-05T08:15:19.914Z,1009.13
2017-08-05T08:16:28.890Z,1009.11
2017-08-05T08:17:37.858Z,1009.05
2017-08-05T08:18:46.811Z,1009.02
2017-08-05T08:19:55.775Z,1008.95
2017-08-05T08:21:05.068Z,1008.9
2017-08-05T08:22:14.352Z,1008.93
2017-08-05T08:23:23.324Z,1008.95
2017-08-05T08:24:32.281Z,1009.1
2017-08-05T08:25:41.239Z,1009.06
2017-08-05T08:26:50.217Z,1009.12
2017-08-05T08:27:59.181Z,1009.15
2017-08-05T08:29:08.158Z,1009.12
2017-08-05T08:30:17.113Z,1009.15
2017-08-05T08:31:26.072Z,1009.15
2017-08-05T08:32:35.037Z,1009.16
2017-08-05T08:33:44.007Z,1009.19
2017-08-05T08:34:52.965Z,1009.22
2017-08-05T08:36:01.943Z,1009.25
2017-08-05T08:37:10.916Z,1009.23
2017-08-05T08:38:19.875Z,1009.24
2017-08-05T08:39:28.840Z,1009.19
2017-08-05T08:40:37.801Z,1009.16
2017-08-05T08:41:46.760Z,1009.17
2017-08-05T08:42:55.718Z,1009.2
2017-08-05T08:44:04.673Z,1009.26
2017-08-05T08:45:13.632Z,1009.26
2017-08-05T08:46:22.600Z,1009.24
2017-08-05T08:47:31.571Z,1009.19
2017-08-05T08:48:40.540Z,1009.28
2017-08-05T08:49:49.498Z,1009.28
2017-08-05T08:50:58.456Z,1009.36
2017-08-05T08:52:07.431Z,1009.29
2017-08-05T08:53:16.720Z,1009.31
2017-08-05T08:54:26.009Z,1009.29
2017-08-05T08:55:35.300Z,1009.23
2017-08-05T08:56:44.320Z,1009.23
2017-08-05T08:57:53.287Z,1009.26
2017-08-05T08:59:02.252Z,1009.24
2017-08-05T09:00:11.233Z,1009.23
2017-08-05T09:01:20.228Z,1009.2
2017-08-05T09:02:29.187Z,1009.22
2017-08-05T09:03:38.153Z,1009.29
2017-08-05T09:04:47.112Z,1009.25
2017-08-05T09:05:56.089Z,1009.24
2017-08-05T09:07:05.061Z,1009.2
2017-08-05T09:08:14.018Z,1009.18
2017-08-05T09:09:22.993Z,1009.22
2017-08-05T09:10:32.280Z,1009.19
2017-08-05T09:11:41.244Z,1009.19
2017-08-05T09:12:50.531Z,1009.13
2017-08-05T09:13:59.502Z,1009.1
2017-08-05T09:15:09.110Z,1009.09
2017-08-05T09:16:18.070Z,1009.05
2017-08-05T09:17:27.037Z,1009.06
2017-08-05T09:18:35.996Z,1009.15
2017-08-05T09:19:44.960Z,1009.12
2017-08-05T09:20:53.921Z,1009.09
2017-08-05T09:22:03.214Z,1009.1
2017-08-05T09:23:12.180Z,1009.01
2017-08-05T09:24:21.159Z,1008.97
2017-08-05T09:25:30.126Z,1009
2017-08-05T09:26:39.096Z,1008.99
2017-08-05T09:27:48.060Z,1009.02
2017-08-05T09:28:57.023Z,1009.07
2017-08-05T09:30:06.056Z,1009.03
2017-08-05T09:31:15.346Z,1009.08
2017-08-05T09:32:24.306Z,1009.07
2017-08-05T09:33:33.275Z,1009.03
2017-08-05T09:34:42.247Z,1009.03
2017-08-05T09:35:51.206Z,1009.07
2017-08-05T09:37:00.175Z,1009.01
2017-08-05T09:38:09.139Z,1008.99
2017-08-05T09:39:18.103Z,1008.97
2017-08-05T09:40:27.068Z,1008.96
2017-08-05T09:41:36.034Z,1008.98
2017-08-05T09:42:44.999Z,1008.99
2017-08-05T09:43:53.961Z,1009.02
2017-08-05T09:45:02.931Z,1009.01
2017-08-05T09:46:11.898Z,1009
2017-08-05T09:47:20.856Z,1008.92
2017-08-05T09:48:29.817Z,1008.91
2017-08-05T09:49:38.778Z,1008.95
2017-08-05T09:50:47.743Z,1008.94
2017-08-05T09:51:56.713Z,1008.85
2017-08-05T09:53:05.673Z,1008.95
2017-08-05T09:54:14.630Z,1009
2017-08-05T09:55:23.596Z,1008.97
2017-08-05T09:56:32.548Z,1008.96
2017-08-05T09:57:41.508Z,1008.93
2017-08-05T09:58:50.468Z,1008.98
2017-08-05T09:59:59.424Z,1008.93
2017-08-05T10:01:08.402Z,1008.97
2017-08-05T10:02:17.370Z,1008.93
2017-08-05T10:03:26.659Z,1008.93
2017-08-05T10:04:35.634Z,1008.88
2017-08-05T10:05:44.597Z,1008.89
2017-08-05T10:06:53.554Z,1008.9
2017-08-05T10:08:02.834Z,1008.88
2017-08-05T10:09:11.798Z,1008.87
2017-08-05T10:10:20.755Z,1008.88
2017-08-05T10:11:29.716Z,1008.89
2017-08-05T10:12:38.683Z,1008.84
2017-08-05T10:13:47.644Z,1008.86
2017-08-05T10:14:56.609Z,1008.79
2017-08-05T10:16:05.580Z,1008.81
2017-08-05T10:17:14.869Z,1008.79
2017-08-05T10:18:23.849Z,1008.82
2017-08-05T10:19:32.820Z,1008.76
2017-08-05T10:20:41.779Z,1008.73
2017-08-05T10:21:51.067Z,1008.77
2017-08-05T10:23:00.034Z,1008.82
2017-08-05T10:24:08.993Z,1008.76
2017-08-05T10:25:17.955Z,1008.86
2017-08-05T10:26:26.917Z,1008.84
2017-08-05T10:27:35.877Z,1008.85
2017-08-05T10:28:44.845Z,1008.84
2017-08-05T10:29:53.810Z,1008.88
2017-08-05T10:31:02.781Z,1008.86
2017-08-05T10:32:11.740Z,1008.88
2017-08-05T10:33:20.700Z,1008.84
2017-08-05T10:34:29.667Z,1008.82
2017-08-05T10:35:38.629Z,1008.85
2017-08-05T10:36:47.589Z,1008.82
2017-08-05T10:37:56.542Z,1008.89
2017-08-05T10:39:05.506Z,1008.82
2017-08-05T10:40:14.465Z,1008.86
2017-08-05T10:41:23.429Z,1008.88
2017-08-05T10:42:32.393Z,1008.91
2017-08-05T10:43:41.360Z,1008.95
2017-08-05T10:44:50.331Z,1008.99
2017-08-05T10:45:59.283Z,1008.99
2017-08-05T10:47:08.260Z,1009
2017-08-05T10:48:17.228Z,1009.01
2017-08-05T10:49:26.189Z,1009.04
2017-08-05T10:50:35.147Z,1008.99
2017-08-05T10:51:44.113Z,1009.02
2017-08-05T10:52:53.077Z,1009.03
2017-08-05T10:54:02.687Z,1009.06
2017-08-05T10:55:11.658Z,1009.05
2017-08-05T10:56:20.620Z,1009.09
2017-08-05T10:57:29.577Z,1009.08
2017-08-05T10:58:38.540Z,1009.13
2017-08-05T10:59:47.499Z,1009.12
2017-08-05T11:00:56.461Z,1009.17
2017-08-05T11:02:05.418Z,1009.21
2017-08-05T11:03:14.704Z,1009.18
2017-08-05T11:04:23.678Z,1009.23
2017-08-05T11:05:32.633Z,1009.17
2017-08-05T11:06:41.593Z,1009.28
2017-08-05T11:07:50.546Z,1009.19
2017-08-05T11:08:59.503Z,1009.18
2017-08-05T11:10:08.467Z,1009.28
2017-08-05T11:11:17.424Z,1009.18
2017-08-05T11:12:26.389Z,1009.28
2017-08-05T11:13:35.353Z,1009.18
2017-08-05T11:14:44.314Z,1009.34
2017-08-05T11:15:53.276Z,1009.31
2017-08-05T11:17:02.566Z,1009.33
2017-08-05T11:18:11.527Z,1009.3
2017-08-05T11:19:20.478Z,1009.4
2017-08-05T11:20:29.438Z,1009.4
2017-08-05T11:21:38.395Z,1009.43
2017-08-05T11:22:47.351Z,1009.43
2017-08-05T11:23:56.320Z,1009.47
2017-08-05T11:25:05.273Z,1009.46
2017-08-05T11:26:14.230Z,1009.47
2017-08-05T11:27:23.193Z,1009.47
2017-08-05T11:28:32.484Z,1009.48
2017-08-05T11:29:41.448Z,1009.5
2017-08-05T11:30:50.403Z,1009.54
2017-08-05T11:31:59.383Z,1009.49
2017-08-05T11:33:08.341Z,1009.56
2017-08-05T11:34:17.300Z,1009.55
2017-08-05T11:35:26.261Z,1009.53
2017-08-05T11:36:35.224Z,1009.58
2017-08-05T11:37:44.183Z,1009.62
2017-08-05T11:38:53.140Z,1009.56
2017-08-05T11:40:02.110Z,1009.51
2017-08-05T11:41:11.072Z,1009.46
2017-08-05T11:42:20.047Z,1009.39
2017-08-05T11:43:29.022Z,1009.32
2017-08-05T11:44:37.984Z,1009.32
2017-08-05T11:45:46.949Z,1009.32
2017-08-05T11:46:55.918Z,1009.34
2017-08-05T11:48:05.200Z,1009.37
2017-08-05T11:49:14.163Z,1009.41
2017-08-05T11:50:23.124Z,1009.35
2017-08-05T11:51:32.089Z,1009.27
2017-08-05T11:52:41.070Z,1009.28
2017-08-05T11:53:50.359Z,1009.23
2017-08-05T11:54:59.318Z,1009.25
2017-08-05T11:56:08.275Z,1009.21
2017-08-05T11:57:17.241Z,1009.23
2017-08-05T11:58:26.208Z,1009.24
2017-08-05T11:59:35.179Z,1009.18
2017-08-05T12:00:44.138Z,1009.19
2017-08-05T12:01:53.106Z,1009.15
2017-08-05T12:03:02.065Z,1009.18
2017-08-05T12:04:11.032Z,1009.18
2017-08-05T12:05:19.991Z,1009.19
2017-08-05T12:06:28.947Z,1009.16
2017-08-05T12:07:37.909Z,1009.22
2017-08-05T12:08:46.870Z,1009.25
2017-08-05T12:09:55.827Z,1009.28
2017-08-05T12:11:04.784Z,1009.33
2017-08-05T12:12:13.751Z,1009.29
2017-08-05T12:13:22.707Z,1009.28
2017-08-05T12:14:31.668Z,1009.3
2017-08-05T12:15:40.628Z,1009.29
2017-08-05T12:16:49.587Z,1009.24
2017-08-05T12:17:58.546Z,1009.22
2017-08-05T12:19:07.496Z,1009.25
2017-08-05T12:20:16.468Z,1009.25
2017-08-05T12:21:25.429Z,1009.29
2017-08-05T12:22:34.720Z,1009.33
2017-08-05T12:23:43.673Z,1009.3
2017-08-05T12:24:52.642Z,1009.31
2017-08-05T12:26:01.610Z,1009.25
2017-08-05T12:27:10.566Z,1009.23
2017-08-05T12:28:19.536Z,1009.27
2017-08-05T12:29:28.490Z,1009.2
2017-08-05T12:30:37.454Z,1009.2
2017-08-05T12:31:46.414Z,1009.12
2017-08-05T12:32:55.369Z,1009.05
2017-08-05T12:34:04.328Z,1009.07
2017-08-05T12:35:13.287Z,1009.08
2017-08-05T12:36:22.244Z,1009.05
2017-08-05T12:37:31.209Z,1009.05
2017-08-05T12:38:40.502Z,1009.03
2017-08-05T12:39:49.467Z,1009.06
2017-08-05T12:40:58.427Z,1009.03
2017-08-05T12:42:07.716Z,1009
2017-08-05T12:43:16.697Z,1008.95
2017-08-05T12:44:25.660Z,1008.95
2017-08-05T12:45:34.622Z,1008.96
2017-08-05T12:46:43.583Z,1009
2017-08-05T12:47:52.559Z,1009.03
2017-08-05T12:49:01.516Z,1009.02
2017-08-05T12:50:10.480Z,1009.07
2017-08-05T12:51:19.443Z,1009.15
2017-08-05T12:52:28.408Z,1009.14
2017-08-05T12:53:37.364Z,1009.18
2017-08-05T12:54:46.329Z,1009.23
2017-08-05T12:55:55.282Z,1009.22
2017-08-05T12:57:04.242Z,1009.24
2017-08-05T12:58:13.209Z,1009.18
2017-08-05T12:59:22.173Z,1009.18
2017-08-05T13:00:31.134Z,1009.13
2017-08-05T13:01:40.098Z,1009.09
2017-08-05T13:02:49.076Z,1009.08
2017-08-05T13:03:58.031Z,1008.99
2017-08-05T13:05:06.990Z,1008.84
2017-08-05T13:06:15.954Z,1008.76
2017-08-05T13:07:24.934Z,1008.73
2017-08-05T13:08:33.897Z,1008.74
2017-08-05T13:09:43.186Z,1008.79
2017-08-05T13:10:52.152Z,1008.79
2017-08-05T13:12:01.110Z,1008.7
2017-08-05T13:13:10.068Z,1008.69
2017-08-05T13:14:19.027Z,1008.67
2017-08-05T13:15:27.989Z,1008.68
2017-08-05T13:16:36.955Z,1008.67
2017-08-05T13:17:45.917Z,1008.63
2017-08-05T13:18:54.872Z,1008.63
2017-08-05T13:20:03.844Z,1008.67
2017-08-05T13:21:12.809Z,1008.67
2017-08-05T13:22:21.781Z,1008.66
2017-08-05T13:23:30.739Z,1008.65
2017-08-05T13:24:39.690Z,1008.63
2017-08-05T13:25:48.654Z,1008.62
2017-08-05T13:26:57.621Z,1008.66
2017-08-05T13:28:06.600Z,1008.56
2017-08-05T13:29:15.558Z,1008.58
2017-08-05T13:30:24.852Z,1008.6
2017-08-05T13:31:33.840Z,1008.59
2017-08-05T13:32:42.804Z,1008.64
2017-08-05T13:33:51.765Z,1008.6
2017-08-05T13:35:00.813Z,1008.61
2017-08-05T13:36:09.775Z,1008.53
2017-08-05T13:37:18.730Z,1008.59
2017-08-05T13:38:27.693Z,1008.65
2017-08-05T13:39:36.645Z,1008.65
2017-08-05T13:40:45.607Z,1008.64
2017-08-05T13:41:54.564Z,1008.63
2017-08-05T13:43:03.524Z,1008.65
2017-08-05T13:44:12.479Z,1008.63
2017-08-05T13:45:21.438Z,1008.69
2017-08-05T13:46:30.406Z,1008.72
2017-08-05T13:47:39.365Z,1008.71
2017-08-05T13:48:48.333Z,1008.66
2017-08-05T13:49:57.296Z,1008.71
2017-08-05T13:51:06.255Z,1008.72
2017-08-05T13:52:15.217Z,1008.79
2017-08-05T13:53:24.176Z,1008.81
2017-08-05T13:54:33.138Z,1008.8
2017-08-05T13:55:42.113Z,1008.82
2017-08-05T13:56:51.072Z,1008.77
2017-08-05T13:58:00.042Z,1008.77